Time;durP1;ratioP1;P1;durP2;ratioP2;P2;SDS_P1;SDS_P2;PMS_P1;PMS_P2;Temp;Humidity;BMP_temperature;BMP_pressure;BME280_temperature;BME280_humidity;BME280_pressure;Samples;Min_cycle;Max_cycle;Signal;HPM_P1;HPM_P2
2021/05/23 00:01:28;;;;;;;27.85;19.77;;;11.10;99.90;;;;;;5004623;28;20026;-64
2021/05/23 00:03:54;;;;;;;30.95;21.52;;;11.20;99.90;;;;;;5006569;28;20032;-64
2021/05/23 00:06:19;;;;;;;30.30;20.83;;;11.20;99.90;;;;;;5005473;28;20032;-64
2021/05/23 00:08:45;;;;;;;30.65;20.85;;;11.20;99.90;;;;;;5011261;28;20029;-64
2021/05/23 00:11:10;;;;;;;27.60;20.05;;;11.20;99.90;;;;;;5018311;28;20056;-63
2021/05/23 00:13:42;;;;;;;27.40;20.00;;;11.20;99.90;;;;;;4998011;28;20087;-65
2021/05/23 00:16:13;;;;;;;27.50;18.45;;;11.20;99.90;;;;;;5010623;28;20500;-62
2021/05/23 00:18:41;;;;;;;26.77;19.63;;;11.30;99.90;;;;;;5008724;28;20464;-62
2021/05/23 00:21:08;;;;;;;30.02;21.45;;;11.20;99.90;;;;;;5005977;28;20025;-64
2021/05/23 00:23:34;;;;;;;33.08;20.38;;;11.10;99.90;;;;;;5007221;28;20389;-64
2021/05/23 00:26:01;;;;;;;25.88;19.95;;;11.20;99.90;;;;;;5008130;28;20018;-64
2021/05/23 00:28:27;;;;;;;30.00;19.02;;;11.10;99.90;;;;;;5004659;28;20022;-64
2021/05/23 00:30:52;;;;;;;30.83;20.88;;;11.10;99.90;;;;;;5005471;28;20037;-64
2021/05/23 00:33:19;;;;;;;29.20;20.70;;;11.00;99.90;;;;;;5006118;28;20105;-63
2021/05/23 00:35:44;;;;;;;29.52;20.40;;;11.00;99.90;;;;;;5006934;28;20049;-65
2021/05/23 00:38:10;;;;;;;28.33;20.42;;;10.80;99.90;;;;;;5014848;28;20026;-64
2021/05/23 00:40:37;;;;;;;31.77;20.38;;;10.80;99.90;;;;;;5006002;28;20041;-64
2021/05/23 00:43:07;;;;;;;29.75;20.02;;;10.80;99.90;;;;;;5011220;28;20021;-64
2021/05/23 00:45:33;;;;;;;29.88;20.27;;;10.80;99.90;;;;;;5010049;28;20129;-63
2021/05/23 00:47:59;;;;;;;31.10;20.08;;;10.80;99.90;;;;;;5017692;28;20589;-65
2021/05/23 00:50:25;;;;;;;28.10;20.08;;;11.00;99.90;;;;;;5024903;28;20257;-65
2021/05/23 00:52:53;;;;;;;29.38;20.17;;;11.10;99.90;;;;;;5018347;28;20026;-63
2021/05/23 00:55:19;;;;;;;26.60;19.35;;;11.10;99.90;;;;;;5012057;28;20092;-64
2021/05/23 00:57:46;;;;;;;22.27;17.17;;;11.00;99.90;;;;;;5007499;28;20109;-64
2021/05/23 01:00:32;;;;;;;23.48;18.08;;;11.10;99.90;;;;;;5002228;28;20022;-65
2021/05/23 01:03:00;;;;;;;23.80;18.08;;;11.10;99.90;;;;;;5018132;28;20036;-65
2021/05/23 01:05:26;;;;;;;26.52;19.10;;;11.00;99.90;;;;;;5016807;28;20014;-63
2021/05/23 01:07:52;;;;;;;28.13;20.27;;;11.00;99.90;;;;;;5007057;28;20044;-64
2021/05/23 01:10:22;;;;;;;26.52;20.58;;;10.90;99.90;;;;;;5009972;28;20021;-64
2021/05/23 01:12:54;;;;;;;26.92;19.73;;;10.90;99.90;;;;;;5011139;28;20514;-65
2021/05/23 01:15:43;;;;;;;27.57;17.70;;;10.90;99.90;;;;;;5012463;28;20093;-64
2021/05/23 01:18:22;;;;;;;27.95;18.50;;;11.00;99.90;;;;;;5006922;28;20041;-64
2021/05/23 01:20:59;;;;;;;26.65;18.98;;;11.10;99.90;;;;;;5010592;28;20026;-65
2021/05/23 01:23:30;;;;;;;29.92;19.65;;;11.20;99.90;;;;;;5005004;28;20933;-64
2021/05/23 01:26:05;;;;;;;31.20;19.45;;;11.20;99.90;;;;;;5013130;28;20038;-65
2021/05/23 01:28:37;;;;;;;24.45;18.50;;;11.30;99.90;;;;;;5017478;28;20025;-64
2021/05/23 01:31:07;;;;;;;30.23;18.80;;;11.30;99.90;;;;;;5011775;28;20013;-63
2021/05/23 01:33:33;;;;;;;28.92;19.65;;;11.30;99.90;;;;;;5015317;28;20029;-64
2021/05/23 01:35:59;;;;;;;27.05;19.73;;;11.20;99.90;;;;;;5016769;28;20010;-63
2021/05/23 01:38:28;;;;;;;32.47;21.10;;;11.10;99.90;;;;;;5015054;28;20044;-64
2021/05/23 01:41:00;;;;;;;30.83;20.85;;;11.10;99.90;;;;;;4998766;28;20026;-64
2021/05/23 01:43:27;;;;;;;36.85;22.65;;;11.00;99.90;;;;;;5003166;28;20026;-64
2021/05/23 01:45:53;;;;;;;35.75;22.60;;;11.00;99.90;;;;;;5007806;28;20021;-64
2021/05/23 01:48:19;;;;;;;29.08;21.10;;;11.00;99.90;;;;;;4999628;28;20030;-64
2021/05/23 01:50:44;;;;;;;32.47;23.15;;;11.00;99.90;;;;;;5006462;28;20072;-63
2021/05/23 01:53:12;;;;;;;37.60;24.15;;;11.10;99.90;;;;;;4999930;28;20480;-64
2021/05/23 01:55:37;;;;;;;35.78;23.77;;;11.10;99.90;;;;;;5006394;28;20068;-64
2021/05/23 01:58:04;;;;;;;37.60;25.05;;;11.00;99.90;;;;;;5007447;28;20066;-64
2021/05/23 02:00:42;;;;;;;42.22;26.65;;;10.90;99.90;;;;;;5007972;28;20502;-64
2021/05/23 02:03:10;;;;;;;43.08;25.90;;;10.80;99.90;;;;;;5005306;28;20026;-63
2021/05/23 02:05:43;;;;;;;44.13;26.58;;;10.80;99.90;;;;;;5013573;28;20101;-63
2021/05/23 02:08:08;;;;;;;38.70;26.27;;;10.90;99.90;;;;;;5001208;28;20245;-64
2021/05/23 02:10:35;;;;;;;55.42;28.88;;;10.80;99.90;;;;;;5006059;28;20125;-64
2021/05/23 02:13:02;;;;;;;51.10;28.98;;;10.70;99.90;;;;;;5006528;28;20030;-64
2021/05/23 02:15:27;;;;;;;50.42;27.30;;;10.80;99.90;;;;;;5001583;28;20022;-64
2021/05/23 02:17:53;;;;;;;49.58;27.02;;;10.70;99.90;;;;;;4992118;28;20041;-65
2021/05/23 02:20:23;;;;;;;40.08;25.55;;;10.70;99.90;;;;;;5004099;28;20045;-64
2021/05/23 02:22:50;;;;;;;41.53;25.85;;;10.70;99.90;;;;;;5007400;28;20105;-65
2021/05/23 02:25:18;;;;;;;49.47;28.67;;;10.80;99.90;;;;;;5005266;28;20076;-62
2021/05/23 02:27:50;;;;;;;54.08;28.25;;;10.90;99.90;;;;;;4994794;28;20117;-63
2021/05/23 02:30:22;;;;;;;35.22;22.58;;;10.90;99.90;;;;;;5000078;28;20034;-64
2021/05/23 02:32:48;;;;;;;44.10;24.02;;;10.90;99.90;;;;;;4998139;28;20037;-65
2021/05/23 02:35:16;;;;;;;49.80;25.70;;;10.90;99.90;;;;;;5008011;28;20037;-64
2021/05/23 02:37:41;;;;;;;44.85;23.75;;;10.80;99.90;;;;;;5006462;28;20056;-65
2021/05/23 02:40:10;;;;;;;43.53;24.15;;;10.80;99.90;;;;;;5004996;28;20257;-64
2021/05/23 02:42:37;;;;;;;39.63;24.08;;;10.90;99.90;;;;;;5003453;28;20080;-65
2021/05/23 02:45:04;;;;;;;42.85;22.63;;;10.80;99.90;;;;;;5005791;28;20084;-66
2021/05/23 02:47:30;;;;;;;42.95;23.75;;;10.80;99.90;;;;;;5001739;28;20026;-64
2021/05/23 02:49:55;;;;;;;45.30;24.75;;;10.80;99.90;;;;;;5002399;28;20482;-65
2021/05/23 02:52:21;;;;;;;45.03;24.45;;;10.90;99.90;;;;;;4997125;28;20077;-63
2021/05/23 02:54:49;;;;;;;42.83;23.77;;;10.90;99.90;;;;;;5002490;28;20505;-65
2021/05/23 02:57:14;;;;;;;40.33;22.98;;;10.90;99.90;;;;;;5001766;28;20410;-65
2021/05/23 02:59:40;;;;;;;39.97;24.02;;;10.90;99.90;;;;;;5008042;28;20037;-66
2021/05/23 03:02:06;;;;;;;43.63;24.67;;;11.00;99.90;;;;;;5010463;28;20026;-65
2021/05/23 03:04:31;;;;;;;44.30;25.23;;;11.00;99.90;;;;;;5008219;28;20034;-64
2021/05/23 03:06:57;;;;;;;37.42;24.15;;;10.90;99.90;;;;;;5011439;28;20026;-65
2021/05/23 03:09:23;;;;;;;40.28;24.38;;;10.80;99.90;;;;;;5013631;28;20034;-64
2021/05/23 03:11:48;;;;;;;38.30;24.48;;;10.80;99.90;;;;;;5011321;28;20245;-65
2021/05/23 03:14:14;;;;;;;43.80;25.45;;;10.90;99.90;;;;;;5014681;28;20529;-64
2021/05/23 03:16:40;;;;;;;48.40;25.65;;;10.90;99.90;;;;;;5016851;28;20044;-64
2021/05/23 03:19:06;;;;;;;51.00;27.08;;;10.80;99.90;;;;;;5016182;28;20029;-67
2021/05/23 03:21:32;;;;;;;41.80;25.45;;;10.80;99.90;;;;;;5014720;28;20030;-63
2021/05/23 03:23:58;;;;;;;43.72;25.20;;;10.80;99.90;;;;;;5017526;28;20033;-65
2021/05/23 03:26:24;;;;;;;45.25;25.13;;;10.80;99.90;;;;;;5032831;28;20021;-65
2021/05/23 03:28:50;;;;;;;51.58;27.20;;;10.70;99.90;;;;;;5010386;28;20112;-65
2021/05/23 03:31:15;;;;;;;48.53;27.67;;;10.80;99.90;;;;;;5005895;28;20117;-65
2021/05/23 03:33:41;;;;;;;46.60;27.65;;;10.80;99.90;;;;;;5007021;28;20036;-65
2021/05/23 03:36:06;;;;;;;49.08;26.67;;;10.80;99.90;;;;;;5011442;28;20033;-65
2021/05/23 03:38:32;;;;;;;54.35;27.25;;;10.80;99.90;;;;;;5017117;28;20044;-62
2021/05/23 03:40:58;;;;;;;50.40;26.88;;;10.90;99.90;;;;;;5013397;28;20117;-65
2021/05/23 03:43:24;;;;;;;50.55;27.15;;;10.80;99.90;;;;;;5018208;28;20486;-65
2021/05/23 03:45:50;;;;;;;49.40;27.67;;;10.80;99.90;;;;;;5017777;28;20361;-65
2021/05/23 03:48:15;;;;;;;56.40;28.45;;;10.80;99.90;;;;;;5009312;28;20150;-64
2021/05/23 03:50:41;;;;;;;53.30;29.77;;;10.70;99.90;;;;;;5003951;28;20491;-64
2021/05/23 03:53:06;;;;;;;46.22;28.60;;;10.70;99.90;;;;;;5012541;28;20087;-65
2021/05/23 03:55:32;;;;;;;45.08;27.02;;;10.70;99.90;;;;;;5017911;28;20500;-65
2021/05/23 03:57:58;;;;;;;52.47;28.27;;;10.70;99.90;;;;;;5013279;28;20073;-65
2021/05/23 04:00:25;;;;;;;49.40;28.67;;;10.80;99.90;;;;;;5020646;28;20018;-65
2021/05/23 04:02:53;;;;;;;46.65;27.25;;;10.80;99.90;;;;;;5000657;28;20405;-64
2021/05/23 04:05:20;;;;;;;48.00;26.88;;;10.80;99.90;;;;;;5005521;28;20026;-65
2021/05/23 04:07:46;;;;;;;45.80;25.65;;;10.80;99.90;;;;;;5003250;28;20125;-65
2021/05/23 04:10:15;;;;;;;48.70;24.63;;;10.70;99.90;;;;;;4999748;28;20520;-65
2021/05/23 04:12:43;;;;;;;41.47;24.00;;;10.70;99.90;;;;;;5006535;28;20093;-65
2021/05/23 04:15:11;;;;;;;44.08;22.92;;;10.70;99.90;;;;;;5005792;28;20105;-63
2021/05/23 04:17:37;;;;;;;41.88;22.75;;;10.60;99.90;;;;;;5020654;28;20037;-65
2021/05/23 04:20:08;;;;;;;33.67;19.42;;;10.50;99.90;;;;;;5014862;28;20091;-66
2021/05/23 04:22:35;;;;;;;36.55;17.65;;;10.60;99.90;;;;;;5016134;28;20030;-64
2021/05/23 04:25:02;;;;;;;35.65;17.65;;;10.60;99.90;;;;;;5016198;28;20034;-64
2021/05/23 04:27:27;;;;;;;41.90;19.20;;;10.60;99.90;;;;;;5019790;28;20492;-65
2021/05/23 04:29:53;;;;;;;33.35;16.38;;;10.60;99.90;;;;;;5015241;28;20112;-65
2021/05/23 04:32:19;;;;;;;39.83;17.65;;;10.70;99.90;;;;;;5009535;28;20366;-65
2021/05/23 04:34:44;;;;;;;34.47;17.25;;;10.60;99.90;;;;;;5009969;28;20490;-65
2021/05/23 04:37:10;;;;;;;41.83;17.83;;;10.80;99.90;;;;;;5026831;28;20394;-64
2021/05/23 04:39:36;;;;;;;31.17;16.83;;;10.80;99.90;;;;;;5024941;28;20376;-65
2021/05/23 04:42:02;;;;;;;35.20;18.52;;;10.80;99.90;;;;;;5016031;28;20030;-65
2021/05/23 04:44:27;;;;;;;48.97;18.85;;;10.90;99.90;;;;;;5017799;28;20022;-64
2021/05/23 04:46:53;;;;;;;36.58;14.27;;;10.90;99.90;;;;;;5018507;28;20036;-65
2021/05/23 04:49:18;;;;;;;31.48;16.05;;;10.90;99.90;;;;;;5016405;28;20022;-65
2021/05/23 04:51:44;;;;;;;33.40;14.73;;;10.90;99.90;;;;;;5010663;28;20092;-65
2021/05/23 04:54:10;;;;;;;32.28;13.48;;;10.90;99.90;;;;;;5021656;28;20062;-64
2021/05/23 04:56:36;;;;;;;31.98;13.35;;;10.90;99.90;;;;;;5023088;28;20030;-64
2021/05/23 04:59:02;;;;;;;34.65;11.40;;;10.70;99.90;;;;;;5016720;28;20674;-65
2021/05/23 05:01:27;;;;;;;27.48;12.30;;;10.70;99.90;;;;;;5025732;28;20029;-64
2021/05/23 05:03:53;;;;;;;28.13;10.30;;;10.70;99.90;;;;;;5019814;28;20036;-65
2021/05/23 05:06:18;;;;;;;31.00;10.18;;;10.60;99.90;;;;;;5016937;28;20018;-65
2021/05/23 05:08:46;;;;;;;26.00;10.00;;;10.70;99.90;;;;;;5018929;28;20776;-66
2021/05/23 05:11:11;;;;;;;26.02;8.23;;;10.60;99.90;;;;;;5016459;28;20026;-65
2021/05/23 05:13:37;;;;;;;21.65;8.70;;;10.60;99.90;;;;;;5020304;28;20044;-64
2021/05/23 05:16:03;;;;;;;24.48;8.18;;;10.60;99.90;;;;;;5009435;28;20391;-65
2021/05/23 05:18:28;;;;;;;32.38;8.23;;;10.60;99.90;;;;;;5019096;28;20129;-66
2021/05/23 05:20:54;;;;;;;25.00;7.40;;;10.70;99.90;;;;;;5018006;28;20029;-65
2021/05/23 05:23:20;;;;;;;19.83;6.20;;;10.70;99.90;;;;;;5010059;28;20027;-64
2021/05/23 05:25:46;;;;;;;19.58;5.93;;;10.60;99.90;;;;;;5010099;28;20032;-64
2021/05/23 05:28:12;;;;;;;25.48;6.28;;;10.60;99.90;;;;;;5008543;28;20034;-65
2021/05/23 05:30:37;;;;;;;20.10;5.43;;;10.60;99.90;;;;;;5008092;28;20049;-64
2021/05/23 05:33:03;;;;;;;27.35;5.25;;;10.60;99.90;;;;;;5002993;28;20032;-64
2021/05/23 05:35:29;;;;;;;16.40;5.20;;;10.60;99.90;;;;;;5013471;28;21300;-65
2021/05/23 05:37:54;;;;;;;26.23;5.72;;;10.60;99.90;;;;;;5019846;28;20033;-65
2021/05/23 05:40:20;;;;;;;18.13;4.90;;;10.60;99.90;;;;;;5017149;28;20057;-66
2021/05/23 05:42:45;;;;;;;16.70;4.80;;;10.70;99.90;;;;;;5019928;28;20037;-65
2021/05/23 05:45:12;;;;;;;22.55;4.47;;;10.50;99.90;;;;;;5027981;28;20022;-65
2021/05/23 05:47:37;;;;;;;16.42;4.20;;;10.60;99.90;;;;;;5015047;28;20576;-64
2021/05/23 05:50:04;;;;;;;14.95;4.15;;;10.50;99.90;;;;;;5003012;28;20128;-65
2021/05/23 05:52:29;;;;;;;16.23;4.10;;;10.60;99.90;;;;;;5000669;28;20037;-63
2021/05/23 05:54:55;;;;;;;17.10;4.95;;;10.60;99.90;;;;;;5002836;28;20168;-66
2021/05/23 05:57:21;;;;;;;19.40;3.70;;;10.60;99.90;;;;;;4999137;28;20030;-65
2021/05/23 05:59:46;;;;;;;26.95;3.50;;;10.70;99.90;;;;;;4997799;28;20020;-65
2021/05/23 06:02:12;;;;;;;19.88;4.00;;;10.80;99.90;;;;;;4998893;28;20053;-64
2021/05/23 06:04:38;;;;;;;16.98;4.18;;;10.70;99.90;;;;;;5001541;28;20037;-63
2021/05/23 06:07:03;;;;;;;22.17;4.32;;;10.70;99.90;;;;;;5000576;28;20493;-65
2021/05/23 06:09:29;;;;;;;15.00;4.35;;;10.70;99.90;;;;;;5007224;28;20080;-65
2021/05/23 06:11:55;;;;;;;19.88;3.47;;;10.70;99.90;;;;;;5002945;28;20035;-64
2021/05/23 06:14:20;;;;;;;19.63;2.85;;;10.80;99.90;;;;;;5001465;28;20010;-64
2021/05/23 06:16:46;;;;;;;16.65;3.40;;;10.90;99.90;;;;;;5019570;28;20025;-64
2021/05/23 06:19:11;;;;;;;12.65;3.45;;;11.00;99.90;;;;;;5013858;28;20289;-64
2021/05/23 06:21:37;;;;;;;14.10;3.63;;;11.00;99.90;;;;;;5010344;28;20026;-64
2021/05/23 06:24:03;;;;;;;17.27;3.70;;;11.10;99.90;;;;;;5007982;28;20564;-63
2021/05/23 06:26:29;;;;;;;8.40;3.10;;;11.00;99.90;;;;;;5006510;28;20114;-64
2021/05/23 06:28:54;;;;;;;19.15;4.32;;;10.80;99.90;;;;;;5001463;28;20117;-63
2021/05/23 06:31:23;;;;;;;24.15;3.88;;;10.70;99.90;;;;;;5007458;28;20033;-63
2021/05/23 06:33:49;;;;;;;18.42;3.63;;;10.70;99.90;;;;;;5004896;28;20481;-66
2021/05/23 06:36:14;;;;;;;22.52;3.65;;;10.70;99.90;;;;;;5008716;28;20041;-66
2021/05/23 06:38:40;;;;;;;19.17;4.00;;;10.70;99.90;;;;;;5006174;28;20156;-65
2021/05/23 06:41:06;;;;;;;15.65;4.35;;;10.80;99.90;;;;;;5007686;28;20563;-65
2021/05/23 06:43:31;;;;;;;19.50;4.07;;;10.80;99.90;;;;;;5004936;28;20061;-63
2021/05/23 06:45:57;;;;;;;17.13;3.58;;;10.90;99.90;;;;;;5013535;28;20014;-63
2021/05/23 06:48:23;;;;;;;11.07;4.40;;;11.00;99.90;;;;;;5003790;28;20034;-64
2021/05/23 06:50:51;;;;;;;11.55;3.03;;;11.00;99.90;;;;;;4998402;28;20040;-66
2021/05/23 06:53:16;;;;;;;12.48;3.65;;;10.80;99.90;;;;;;5000838;28;20041;-64
2021/05/23 06:55:43;;;;;;;17.17;4.28;;;10.80;99.90;;;;;;5000194;28;20035;-64
2021/05/23 06:58:09;;;;;;;16.60;4.47;;;11.00;99.90;;;;;;4999480;28;20303;-64
2021/05/23 07:00:34;;;;;;;10.60;3.85;;;11.00;99.90;;;;;;5006852;28;20033;-64
2021/05/23 07:03:00;;;;;;;14.30;3.58;;;11.10;99.90;;;;;;4998430;28;20030;-64
2021/05/23 07:05:26;;;;;;;16.23;3.78;;;11.00;99.90;;;;;;5022015;28;20021;-65
2021/05/23 07:07:52;;;;;;;9.95;2.75;;;10.90;99.90;;;;;;5025876;28;20026;-64
2021/05/23 07:10:17;;;;;;;21.65;2.97;;;11.00;99.90;;;;;;5007133;28;20497;-63
2021/05/23 07:12:43;;;;;;;14.40;2.78;;;11.10;99.90;;;;;;5008419;28;20812;-65
2021/05/23 07:15:09;;;;;;;11.60;2.45;;;11.10;99.90;;;;;;5011457;28;20113;-65
2021/05/23 07:17:35;;;;;;;11.63;2.95;;;11.30;99.90;;;;;;5011351;28;20079;-66
2021/05/23 07:20:02;;;;;;;16.55;3.08;;;11.50;99.90;;;;;;5009034;28;20025;-65
2021/05/23 07:22:27;;;;;;;11.07;2.70;;;11.50;99.90;;;;;;5002016;28;20026;-66
2021/05/23 07:24:53;;;;;;;13.80;3.10;;;11.80;99.90;;;;;;5004097;28;20030;-65
2021/05/23 07:27:19;;;;;;;12.65;2.40;;;11.80;99.90;;;;;;5003880;28;20268;-66
2021/05/23 07:29:44;;;;;;;15.98;4.15;;;11.80;99.90;;;;;;5010056;28;20419;-65
2021/05/23 07:32:10;;;;;;;9.40;2.85;;;11.80;99.90;;;;;;5006462;28;20022;-64
2021/05/23 07:34:35;;;;;;;6.15;2.13;;;11.70;99.90;;;;;;4996130;28;20030;-64
2021/05/23 07:37:01;;;;;;;12.13;2.40;;;11.60;99.90;;;;;;5023196;28;20093;-66
2021/05/23 07:39:26;;;;;;;7.18;2.15;;;11.70;99.90;;;;;;5014660;28;20033;-64
2021/05/23 07:41:52;;;;;;;11.82;2.88;;;11.60;99.90;;;;;;5004819;28;20026;-63
2021/05/23 07:44:18;;;;;;;3.30;1.83;;;11.60;99.90;;;;;;5017188;28;20512;-63
2021/05/23 07:46:44;;;;;;;9.70;2.17;;;12.00;99.90;;;;;;5016159;28;20072;-64
2021/05/23 07:49:10;;;;;;;9.68;3.15;;;12.00;99.90;;;;;;5008462;28;20137;-64
2021/05/23 07:51:36;;;;;;;13.60;3.08;;;11.80;99.90;;;;;;4999796;28;20035;-64
2021/05/23 07:54:03;;;;;;;8.30;2.20;;;11.70;99.90;;;;;;4995414;28;20023;-63
2021/05/23 07:56:28;;;;;;;5.15;2.22;;;11.50;99.90;;;;;;4998301;28;20022;-64
2021/05/23 07:58:54;;;;;;;13.60;2.50;;;11.50;99.90;;;;;;4999037;28;20022;-63
2021/05/23 08:01:20;;;;;;;17.58;3.30;;;11.50;99.90;;;;;;4995265;28;20034;-63
2021/05/23 08:03:45;;;;;;;11.45;3.10;;;11.70;99.90;;;;;;5010227;28;20026;-64
2021/05/23 08:06:12;;;;;;;10.95;2.45;;;11.90;99.90;;;;;;4999689;28;20358;-64
2021/05/23 08:08:38;;;;;;;8.40;2.28;;;11.90;99.90;;;;;;5003436;28;20184;-64
2021/05/23 08:11:04;;;;;;;15.77;2.88;;;11.80;99.90;;;;;;5011232;28;20456;-64
2021/05/23 08:13:29;;;;;;;9.07;2.35;;;11.80;99.90;;;;;;5016679;28;20030;-64
2021/05/23 08:15:57;;;;;;;12.07;2.72;;;11.80;99.90;;;;;;4999292;28;20073;-63
2021/05/23 08:18:28;;;;;;;6.07;2.17;;;11.60;99.90;;;;;;4998879;28;20428;-65
2021/05/23 08:20:59;;;;;;;15.18;2.70;;;11.80;99.90;;;;;;5008932;28;20486;-65
2021/05/23 08:23:25;;;;;;;14.73;2.58;;;11.90;99.90;;;;;;4996972;28;20405;-62
2021/05/23 08:25:52;;;;;;;10.15;2.45;;;12.20;99.90;;;;;;5000599;28;20510;-65
2021/05/23 08:28:17;;;;;;;10.50;2.28;;;12.50;99.90;;;;;;5011323;28;20045;-64
2021/05/23 08:30:43;;;;;;;17.05;2.38;;;12.60;99.90;;;;;;5007697;28;20414;-64
2021/05/23 08:33:10;;;;;;;9.57;2.25;;;12.60;99.90;;;;;;5005871;28;20025;-65
2021/05/23 08:35:36;;;;;;;12.82;2.15;;;12.60;99.90;;;;;;5005113;28;20037;-66
2021/05/23 08:38:01;;;;;;;7.25;1.80;;;12.50;99.90;;;;;;5003593;28;20019;-62
2021/05/23 08:40:27;;;;;;;9.25;2.88;;;12.60;99.90;;;;;;4999291;28;20018;-64
2021/05/23 08:42:53;;;;;;;7.45;2.05;;;12.60;99.90;;;;;;4998378;28;20029;-65
2021/05/23 08:45:19;;;;;;;5.60;2.22;;;12.80;99.90;;;;;;5007107;28;20101;-63
2021/05/23 08:47:45;;;;;;;10.57;2.28;;;13.00;99.90;;;;;;4999581;28;20509;-64
2021/05/23 08:50:14;;;;;;;12.57;2.28;;;13.00;99.90;;;;;;5005908;28;20038;-64
2021/05/23 08:52:40;;;;;;;7.68;2.05;;;13.20;99.90;;;;;;5004007;28;20030;-63
2021/05/23 08:55:07;;;;;;;9.02;2.35;;;13.30;99.90;;;;;;4996902;28;20116;-64
2021/05/23 08:57:34;;;;;;;13.32;2.38;;;13.20;99.90;;;;;;5004945;28;20053;-62
2021/05/23 08:59:59;;;;;;;5.20;1.55;;;13.10;99.90;;;;;;4993054;28;20030;-66
2021/05/23 09:02:26;;;;;;;16.73;2.55;;;12.90;99.90;;;;;;5002939;28;20030;-65
2021/05/23 09:04:52;;;;;;;4.05;1.70;;;12.80;99.90;;;;;;5017437;28;20026;-63
2021/05/23 09:07:19;;;;;;;5.00;1.77;;;12.80;99.90;;;;;;5002906;28;20049;-63
2021/05/23 09:09:46;;;;;;;6.18;1.85;;;12.70;99.90;;;;;;5015644;28;20093;-64
2021/05/23 09:12:14;;;;;;;7.50;2.25;;;12.70;99.90;;;;;;5009133;28;20867;-64
2021/05/23 09:14:46;;;;;;;9.15;1.90;;;12.70;99.90;;;;;;5005243;28;20413;-66
2021/05/23 09:17:38;;;;;;;4.60;1.50;;;12.50;99.90;;;;;;5022689;28;20525;-63
2021/05/23 09:20:04;;;;;;;5.20;1.20;;;12.50;99.90;;;;;;5006044;28;20046;-62
2021/05/23 09:22:30;;;;;;;4.53;1.35;;;12.30;99.90;;;;;;5007996;28;20052;-63
2021/05/23 09:24:58;;;;;;;11.15;1.83;;;12.20;99.90;;;;;;4995109;28;20058;-63
2021/05/23 09:27:28;;;;;;;4.78;1.17;;;12.10;99.90;;;;;;4994964;28;20308;-64
2021/05/23 09:30:22;;;;;;;12.57;2.22;;;12.10;99.90;;;;;;4998470;28;20018;-63
2021/05/23 09:32:49;;;;;;;6.28;1.90;;;12.20;99.90;;;;;;5000409;28;20592;-62
2021/05/23 09:35:16;;;;;;;9.18;1.80;;;12.40;99.90;;;;;;5003886;28;20029;-64
2021/05/23 09:37:43;;;;;;;8.63;1.88;;;12.40;99.90;;;;;;5012081;28;20061;-64
2021/05/23 09:40:20;;;;;;;5.75;1.95;;;12.60;99.90;;;;;;5017386;28;20422;-66
2021/05/23 09:42:47;;;;;;;5.40;1.52;;;12.80;99.90;;;;;;5004174;28;20250;-66
2021/05/23 09:45:15;;;;;;;9.32;2.17;;;12.80;99.90;;;;;;5005335;28;20043;-65
2021/05/23 09:47:57;;;;;;;5.55;2.05;;;12.70;99.90;;;;;;5010377;28;20038;-64
2021/05/23 09:50:39;;;;;;;;;;;12.70;99.90;;;;;;5015255;28;20670;-67
2021/05/23 09:53:17;;;;;;;11.57;2.10;;;12.60;99.90;;;;;;5001961;28;20424;-64
2021/05/23 09:56:01;;;;;;;10.27;1.98;;;12.60;99.90;;;;;;5007980;28;20029;-66
2021/05/23 09:58:39;;;;;;;8.75;1.73;;;12.50;99.90;;;;;;5005708;28;20030;-65
2021/05/23 10:01:07;;;;;;;8.38;1.80;;;12.40;99.90;;;;;;5003589;28;20398;-64
2021/05/23 10:03:35;;;;;;;3.13;1.30;;;12.60;99.90;;;;;;5004278;28;20025;-64
2021/05/23 10:06:01;;;;;;;6.28;1.35;;;12.70;99.90;;;;;;5001191;28;20025;-65
2021/05/23 10:08:28;;;;;;;4.63;1.10;;;13.00;99.90;;;;;;5001417;28;20449;-64
2021/05/23 10:10:54;;;;;;;4.78;1.27;;;13.10;99.90;;;;;;5006901;28;20537;-64
2021/05/23 10:13:22;;;;;;;4.40;1.08;;;13.10;99.90;;;;;;5005794;28;20112;-63
2021/05/23 10:15:48;;;;;;;3.78;0.90;;;12.90;99.90;;;;;;5013701;28;20575;-64
2021/05/23 10:18:14;;;;;;;3.65;1.08;;;12.90;99.90;;;;;;5011992;28;20120;-64
2021/05/23 10:20:41;;;;;;;7.00;1.38;;;13.00;99.90;;;;;;5006166;28;20514;-65
2021/05/23 10:23:14;;;;;;;6.38;1.17;;;12.90;99.90;;;;;;5011286;28;20018;-63
2021/05/23 10:25:47;;;;;;;7.03;1.20;;;13.10;99.90;;;;;;5007706;28;20033;-64
2021/05/23 10:28:14;;;;;;;5.45;1.33;;;13.10;99.90;;;;;;5009972;28;20022;-68
2021/05/23 10:30:54;;;;;;;4.60;1.00;;;13.10;99.90;;;;;;5007369;28;20088;-63
2021/05/23 10:33:21;;;;;;;6.50;1.08;;;13.20;99.90;;;;;;5007404;28;20060;-64
2021/05/23 10:35:48;;;;;;;2.58;1.05;;;13.10;99.90;;;;;;5002327;28;20030;-64
2021/05/23 10:38:18;;;;;;;4.55;1.05;;;13.10;99.90;;;;;;5008842;28;20588;-65
2021/05/23 10:40:58;;;;;;;4.25;1.13;;;13.20;99.90;;;;;;4999228;28;20034;-64
2021/05/23 10:43:28;;;;;;;4.70;1.25;;;13.40;99.90;;;;;;4996214;28;20372;-66
2021/05/23 10:46:23;;;;;;;3.85;1.10;;;13.40;99.90;;;;;;5001760;28;20033;-65
2021/05/23 10:49:00;;;;;;;7.13;1.13;;;13.70;99.90;;;;;;4998853;28;20033;-66
2021/05/23 10:51:28;;;;;;;5.00;1.17;;;13.70;99.60;;;;;;5000632;28;20026;-62
2021/05/23 10:53:54;;;;;;;4.13;1.13;;;13.60;99.90;;;;;;5004703;28;20030;-63
2021/05/23 10:56:29;;;;;;;4.53;1.30;;;13.70;99.90;;;;;;5005002;28;20475;-64
2021/05/23 10:59:02;;;;;;;4.10;1.23;;;14.00;99.90;;;;;;5007079;28;20045;-63
2021/05/23 11:02:01;;;;;;;4.55;1.27;;;14.00;99.10;;;;;;5006371;28;20018;-64
2021/05/23 11:04:39;;;;;;;3.92;1.02;;;13.90;99.90;;;;;;5018683;28;20438;-65
2021/05/23 11:07:12;;;;;;;7.82;1.98;;;14.20;99.90;;;;;;5012530;28;20148;-63
2021/05/23 11:09:41;;;;;;;2.75;1.20;;;14.30;99.90;;;;;;5009982;28;20072;-64
2021/05/23 11:12:08;;;;;;;4.47;1.40;;;13.90;99.40;;;;;;4998856;28;20498;-65
2021/05/23 11:14:34;;;;;;;7.65;2.42;;;14.00;99.90;;;;;;5004539;28;20029;-62
2021/05/23 11:16:59;;;;;;;3.88;1.58;;;13.90;99.90;;;;;;5009459;28;20129;-64
2021/05/23 11:19:30;;;;;;;6.75;1.55;;;14.00;99.60;;;;;;5008885;28;20107;-67
2021/05/23 11:21:58;;;;;;;6.13;1.20;;;14.20;99.90;;;;;;5002448;28;20014;-64
2021/05/23 11:24:29;;;;;;;6.53;1.45;;;14.30;99.90;;;;;;5009035;28;20018;-64
2021/05/23 11:26:56;;;;;;;5.07;1.60;;;14.50;99.90;;;;;;5010142;28;20018;-64
2021/05/23 11:29:24;;;;;;;4.32;1.60;;;14.60;99.90;;;;;;5018058;28;20463;-65
2021/05/23 11:31:51;;;;;;;5.53;1.63;;;14.70;99.90;;;;;;5009550;28;20057;-63
2021/05/23 11:34:20;;;;;;;4.60;1.50;;;14.50;99.90;;;;;;5013101;28;20042;-63
2021/05/23 11:36:46;;;;;;;7.30;1.33;;;14.30;99.90;;;;;;5014418;28;20045;-64
2021/05/23 11:39:14;;;;;;;13.02;1.85;;;14.20;99.90;;;;;;5011790;28;20038;-66
2021/05/23 11:41:42;;;;;;;9.63;2.42;;;14.40;99.90;;;;;;5003447;28;20030;-63
2021/05/23 11:44:10;;;;;;;3.53;1.17;;;14.60;99.90;;;;;;5010052;28;20041;-68
2021/05/23 11:46:38;;;;;;;2.70;1.33;;;14.40;99.90;;;;;;5018012;28;20520;-64
2021/05/23 11:49:04;;;;;;;5.30;1.58;;;14.60;99.90;;;;;;5009914;28;20045;-64
2021/05/23 11:51:32;;;;;;;6.88;1.63;;;14.80;99.90;;;;;;5007580;28;20018;-66
2021/05/23 11:54:03;;;;;;;8.00;1.67;;;14.50;99.90;;;;;;5000556;28;20057;-64
2021/05/23 11:56:31;;;;;;;9.30;1.65;;;14.60;99.90;;;;;;5006415;28;20104;-66
2021/05/23 11:58:58;;;;;;;7.57;1.85;;;14.70;99.90;;;;;;5006822;28;20396;-64
2021/05/23 12:01:29;;;;;;;5.15;1.65;;;15.00;99.90;;;;;;5013025;28;20476;-65
2021/05/23 12:04:15;;;;;;;3.92;1.73;;;14.70;99.90;;;;;;5015303;28;20492;-64
2021/05/23 12:06:51;;;;;;;3.58;1.38;;;14.70;99.90;;;;;;5007691;28;20092;-64
2021/05/23 12:09:21;;;;;;;4.20;1.38;;;14.60;99.90;;;;;;5007051;28;20557;-62
2021/05/23 12:11:57;;;;;;;10.60;2.05;;;14.70;99.30;;;;;;5010196;28;20026;-63
2021/05/23 12:14:37;;;;;;;2.17;1.20;;;14.70;99.20;;;;;;5020424;28;20083;-64
2021/05/23 12:17:10;;;;;;;5.65;1.83;;;15.00;99.90;;;;;;5008414;28;20021;-63
2021/05/23 12:19:48;;;;;;;7.03;1.58;;;14.90;99.20;;;;;;5010099;28;20308;-64
2021/05/23 12:22:13;;;;;;;6.05;1.70;;;15.00;99.70;;;;;;4997100;28;20454;-63
2021/05/23 12:24:40;;;;;;;6.13;1.70;;;14.90;98.20;;;;;;4999862;28;20069;-64
2021/05/23 12:27:05;;;;;;;5.13;1.73;;;14.80;98.60;;;;;;5010880;28;20449;-64
2021/05/23 12:29:31;;;;;;;5.68;1.90;;;15.00;99.90;;;;;;5009475;28;20060;-64
2021/05/23 12:31:56;;;;;;;9.93;2.17;;;15.00;98.80;;;;;;5010937;28;20118;-64
2021/05/23 12:34:22;;;;;;;3.83;1.85;;;15.10;98.20;;;;;;5014901;28;20333;-63
2021/05/23 12:36:48;;;;;;;8.68;2.40;;;15.30;97.90;;;;;;5007141;28;20357;-64
2021/05/23 12:39:21;;;;;;;7.53;2.00;;;15.40;97.70;;;;;;5009970;28;20025;-62